sensor_id;sensor_type;location;lat;lon;timestamp;pressure;altitude;pressure_sealevel;temperature;humidity
73633;BME280;61927;50.080;14.418;2023-08-06T00:01:52;98580.69;;;15.63;91.31
73633;BME280;61927;50.080;14.418;2023-08-06T00:04:18;98577.63;;;15.58;91.84
73633;BME280;61927;50.080;14.418;2023-08-06T00:06:45;98569.59;;;15.58;91.79
73633;BME280;61927;50.080;14.418;2023-08-06T00:09:10;98574.22;;;15.56;92.05
73633;BME280;61927;50.080;14.418;2023-08-06T00:11:36;98572.00;;;15.51;92.15
73633;BME280;61927;50.080;14.418;2023-08-06T00:14:01;98573.66;;;15.52;92.13
73633;BME280;61927;50.080;14.418;2023-08-06T00:16:27;98575.09;;;15.47;92.37
73633;BME280;61927;50.080;14.418;2023-08-06T00:18:52;98572.13;;;15.50;92.69
73633;BME280;61927;50.080;14.418;2023-08-06T00:21:18;98567.34;;;15.54;91.99
73633;BME280;61927;50.080;14.418;2023-08-06T00:23:43;98563.97;;;15.51;92.32
73633;BME280;61927;50.080;14.418;2023-08-06T00:26:09;98551.88;;;15.57;92.35
73633;BME280;61927;50.080;14.418;2023-08-06T00:28:34;98547.06;;;15.61;91.68
73633;BME280;61927;50.080;14.418;2023-08-06T00:31:00;98541.88;;;15.59;92.05
73633;BME280;61927;50.080;14.418;2023-08-06T00:33:26;98535.94;;;15.56;91.77
73633;BME280;61927;50.080;14.418;2023-08-06T00:35:51;98538.91;;;15.52;91.82
73633;BME280;61927;50.080;14.418;2023-08-06T00:38:17;98533.03;;;15.49;91.93
73633;BME280;61927;50.080;14.418;2023-08-06T00:40:43;98535.84;;;15.47;91.94
73633;BME280;61927;50.080;14.418;2023-08-06T00:43:08;98536.00;;;15.46;92.02
73633;BME280;61927;50.080;14.418;2023-08-06T00:45:36;98533.47;;;15.44;91.81
73633;BME280;61927;50.080;14.418;2023-08-06T00:48:05;98530.78;;;15.44;91.98
73633;BME280;61927;50.080;14.418;2023-08-06T00:50:32;98532.47;;;15.45;91.42
73633;BME280;61927;50.080;14.418;2023-08-06T00:52:57;98524.44;;;15.45;91.54
73633;BME280;61927;50.080;14.418;2023-08-06T00:55:24;98517.13;;;15.47;91.71
73633;BME280;61927;50.080;14.418;2023-08-06T00:57:50;98518.13;;;15.46;91.94
73633;BME280;61927;50.080;14.418;2023-08-06T01:00:19;98521.78;;;15.45;92.26
73633;BME280;61927;50.080;14.418;2023-08-06T01:02:46;98518.50;;;15.51;91.70
73633;BME280;61927;50.080;14.418;2023-08-06T01:05:11;98513.72;;;15.55;91.77
73633;BME280;61927;50.080;14.418;2023-08-06T01:12:52;98503.47;;;15.50;91.88
73633;BME280;61927;50.080;14.418;2023-08-06T01:15:24;98497.13;;;15.51;91.75
73633;BME280;61927;50.080;14.418;2023-08-06T01:17:52;98510.94;;;15.47;92.46
73633;BME280;61927;50.080;14.418;2023-08-06T01:20:18;98496.28;;;15.51;92.47
73633;BME280;61927;50.080;14.418;2023-08-06T01:22:43;98495.59;;;15.49;92.19
73633;BME280;61927;50.080;14.418;2023-08-06T01:25:09;98498.16;;;15.41;92.69
73633;BME280;61927;50.080;14.418;2023-08-06T01:30:12;98491.59;;;15.35;93.41
73633;BME280;61927;50.080;14.418;2023-08-06T01:32:43;98499.00;;;15.41;92.92
73633;BME280;61927;50.080;14.418;2023-08-06T01:35:11;98497.47;;;15.39;93.18
73633;BME280;61927;50.080;14.418;2023-08-06T01:37:38;98505.94;;;15.34;92.96
73633;BME280;61927;50.080;14.418;2023-08-06T01:40:11;98504.25;;;15.33;93.13
73633;BME280;61927;50.080;14.418;2023-08-06T01:42:37;98505.38;;;15.31;93.55
73633;BME280;61927;50.080;14.418;2023-08-06T01:45:03;98497.91;;;15.34;93.50
73633;BME280;61927;50.080;14.418;2023-08-06T01:47:29;98495.78;;;15.38;93.08
73633;BME280;61927;50.080;14.418;2023-08-06T01:49:54;98492.41;;;15.36;92.96
73633;BME280;61927;50.080;14.418;2023-08-06T01:52:20;98495.53;;;15.31;92.94
73633;BME280;61927;50.080;14.418;2023-08-06T01:54:46;98489.50;;;15.29;93.27
73633;BME280;61927;50.080;14.418;2023-08-06T01:57:11;98491.72;;;15.34;93.61
73633;BME280;61927;50.080;14.418;2023-08-06T01:59:37;98484.25;;;15.37;93.46
73633;BME280;61927;50.080;14.418;2023-08-06T02:02:02;98493.13;;;15.38;92.34
73633;BME280;61927;50.080;14.418;2023-08-06T02:04:28;98486.22;;;15.35;92.06
73633;BME280;61927;50.080;14.418;2023-08-06T02:06:54;98485.94;;;15.38;92.12
73633;BME280;61927;50.080;14.418;2023-08-06T02:09:19;98480.59;;;15.38;92.11
73633;BME280;61927;50.080;14.418;2023-08-06T02:11:45;98473.63;;;15.28;92.86
73633;BME280;61927;50.080;14.418;2023-08-06T02:14:11;98475.16;;;15.30;92.98
73633;BME280;61927;50.080;14.418;2023-08-06T02:16:37;98477.53;;;15.33;92.46
73633;BME280;61927;50.080;14.418;2023-08-06T02:19:03;98480.88;;;15.35;92.43
73633;BME280;61927;50.080;14.418;2023-08-06T02:21:28;98487.81;;;15.28;92.19
73633;BME280;61927;50.080;14.418;2023-08-06T02:23:54;98488.38;;;15.32;92.11
73633;BME280;61927;50.080;14.418;2023-08-06T02:26:20;98491.88;;;15.32;92.18
73633;BME280;61927;50.080;14.418;2023-08-06T02:28:46;98490.59;;;15.36;92.46
73633;BME280;61927;50.080;14.418;2023-08-06T02:31:11;98483.81;;;15.42;92.38
73633;BME280;61927;50.080;14.418;2023-08-06T02:33:37;98482.66;;;15.44;92.03
73633;BME280;61927;50.080;14.418;2023-08-06T02:36:03;98477.63;;;15.41;91.34
73633;BME280;61927;50.080;14.418;2023-08-06T02:38:30;98470.75;;;15.39;91.80
73633;BME280;61927;50.080;14.418;2023-08-06T02:40:55;98462.28;;;15.43;90.83
73633;BME280;61927;50.080;14.418;2023-08-06T02:43:21;98464.50;;;15.48;90.67
73633;BME280;61927;50.080;14.418;2023-08-06T02:45:47;98463.97;;;15.44;90.16
73633;BME280;61927;50.080;14.418;2023-08-06T02:48:12;98456.22;;;15.41;90.85
73633;BME280;61927;50.080;14.418;2023-08-06T02:50:38;98447.06;;;15.44;90.71
73633;BME280;61927;50.080;14.418;2023-08-06T02:53:05;98448.22;;;15.41;90.66
73633;BME280;61927;50.080;14.418;2023-08-06T02:55:31;98447.28;;;15.33;91.65
73633;BME280;61927;50.080;14.418;2023-08-06T02:57:56;98459.81;;;15.32;91.96
73633;BME280;61927;50.080;14.418;2023-08-06T03:00:22;98451.50;;;15.35;91.78
73633;BME280;61927;50.080;14.418;2023-08-06T03:02:47;98449.19;;;15.40;90.90
73633;BME280;61927;50.080;14.418;2023-08-06T03:05:13;98444.00;;;15.39;91.01
73633;BME280;61927;50.080;14.418;2023-08-06T03:07:39;98435.44;;;15.35;91.36
73633;BME280;61927;50.080;14.418;2023-08-06T03:10:04;98436.88;;;15.30;91.73
73633;BME280;61927;50.080;14.418;2023-08-06T03:12:30;98429.03;;;15.28;91.82
73633;BME280;61927;50.080;14.418;2023-08-06T03:14:56;98433.38;;;15.29;91.51
73633;BME280;61927;50.080;14.418;2023-08-06T03:17:21;98434.06;;;15.31;91.33
73633;BME280;61927;50.080;14.418;2023-08-06T03:19:47;98426.59;;;15.35;91.20
73633;BME280;61927;50.080;14.418;2023-08-06T03:22:12;98420.69;;;15.31;91.10
73633;BME280;61927;50.080;14.418;2023-08-06T03:24:38;98420.16;;;15.28;91.33
73633;BME280;61927;50.080;14.418;2023-08-06T03:27:04;98417.47;;;15.28;91.47
73633;BME280;61927;50.080;14.418;2023-08-06T03:29:29;98411.44;;;15.26;91.77
73633;BME280;61927;50.080;14.418;2023-08-06T03:31:55;98413.13;;;15.27;91.52
73633;BME280;61927;50.080;14.418;2023-08-06T03:34:20;98418.19;;;15.30;91.69
73633;BME280;61927;50.080;14.418;2023-08-06T03:36:46;98402.97;;;15.30;91.15
73633;BME280;61927;50.080;14.418;2023-08-06T03:39:12;98406.50;;;15.31;91.00
73633;BME280;61927;50.080;14.418;2023-08-06T03:41:39;98400.16;;;15.32;91.43
73633;BME280;61927;50.080;14.418;2023-08-06T03:44:04;98400.16;;;15.32;91.08
73633;BME280;61927;50.080;14.418;2023-08-06T03:46:30;98398.19;;;15.34;90.25
73633;BME280;61927;50.080;14.418;2023-08-06T03:49:02;98396.19;;;15.36;90.51
73633;BME280;61927;50.080;14.418;2023-08-06T03:51:28;98396.50;;;15.33;90.14
73633;BME280;61927;50.080;14.418;2023-08-06T03:53:53;98397.34;;;15.33;90.01
73633;BME280;61927;50.080;14.418;2023-08-06T03:56:19;98392.53;;;15.37;89.76
73633;BME280;61927;50.080;14.418;2023-08-06T03:58:45;98389.25;;;15.43;89.51
73633;BME280;61927;50.080;14.418;2023-08-06T04:01:10;98381.00;;;15.36;89.16
73633;BME280;61927;50.080;14.418;2023-08-06T04:03:36;98384.66;;;15.35;89.68
73633;BME280;61927;50.080;14.418;2023-08-06T04:06:02;98385.66;;;15.34;89.56
73633;BME280;61927;50.080;14.418;2023-08-06T04:08:28;98379.31;;;15.35;89.49
73633;BME280;61927;50.080;14.418;2023-08-06T04:10:54;98370.00;;;15.39;89.48
73633;BME280;61927;50.080;14.418;2023-08-06T04:13:19;98367.47;;;15.38;88.92
73633;BME280;61927;50.080;14.418;2023-08-06T04:15:46;98363.13;;;15.37;89.20
73633;BME280;61927;50.080;14.418;2023-08-06T04:18:12;98364.28;;;15.34;89.10
73633;BME280;61927;50.080;14.418;2023-08-06T04:20:47;98360.91;;;15.32;89.93
73633;BME280;61927;50.080;14.418;2023-08-06T04:23:14;98364.13;;;15.36;90.03
73633;BME280;61927;50.080;14.418;2023-08-06T04:25:40;98357.94;;;15.35;89.97
73633;BME280;61927;50.080;14.418;2023-08-06T04:28:07;98355.41;;;15.34;90.54
73633;BME280;61927;50.080;14.418;2023-08-06T04:30:33;98359.63;;;15.36;90.48
73633;BME280;61927;50.080;14.418;2023-08-06T04:32:58;98355.94;;;15.37;89.94
73633;BME280;61927;50.080;14.418;2023-08-06T04:35:24;98357.63;;;15.38;90.48
73633;BME280;61927;50.080;14.418;2023-08-06T04:37:50;98350.22;;;15.50;89.88
73633;BME280;61927;50.080;14.418;2023-08-06T04:40:16;98351.59;;;15.54;89.63
73633;BME280;61927;50.080;14.418;2023-08-06T04:42:41;98345.81;;;15.59;89.43
73633;BME280;61927;50.080;14.418;2023-08-06T04:45:07;98346.50;;;15.61;89.60
73633;BME280;61927;50.080;14.418;2023-08-06T04:47:33;98339.19;;;15.63;89.10
73633;BME280;61927;50.080;14.418;2023-08-06T04:49:58;98346.06;;;15.65;89.18
73633;BME280;61927;50.080;14.418;2023-08-06T04:52:24;98336.56;;;15.71;88.73
73633;BME280;61927;50.080;14.418;2023-08-06T04:54:53;98341.78;;;15.72;88.50
73633;BME280;61927;50.080;14.418;2023-08-06T04:57:18;98336.09;;;15.75;88.54
73633;BME280;61927;50.080;14.418;2023-08-06T04:59:45;98332.75;;;15.73;88.78
73633;BME280;61927;50.080;14.418;2023-08-06T05:02:11;98334.66;;;15.81;89.00
73633;BME280;61927;50.080;14.418;2023-08-06T05:04:36;98334.44;;;15.74;88.11
73633;BME280;61927;50.080;14.418;2023-08-06T05:07:03;98328.16;;;15.66;88.72
73633;BME280;61927;50.080;14.418;2023-08-06T05:09:28;98329.00;;;15.66;88.99
73633;BME280;61927;50.080;14.418;2023-08-06T05:11:54;98321.97;;;15.65;88.47
73633;BME280;61927;50.080;14.418;2023-08-06T05:14:19;98324.50;;;15.67;88.37
73633;BME280;61927;50.080;14.418;2023-08-06T05:16:45;98327.56;;;15.72;87.88
73633;BME280;61927;50.080;14.418;2023-08-06T05:19:11;98318.53;;;15.73;88.16
73633;BME280;61927;50.080;14.418;2023-08-06T05:21:36;98332.97;;;15.80;87.86
73633;BME280;61927;50.080;14.418;2023-08-06T05:24:02;98329.00;;;15.84;87.48
73633;BME280;61927;50.080;14.418;2023-08-06T05:26:27;98323.19;;;15.89;87.01
73633;BME280;61927;50.080;14.418;2023-08-06T05:28:53;98323.88;;;15.91;86.72
73633;BME280;61927;50.080;14.418;2023-08-06T05:31:18;98319.41;;;15.99;86.81
73633;BME280;61927;50.080;14.418;2023-08-06T05:33:44;98321.81;;;16.10;86.26
73633;BME280;61927;50.080;14.418;2023-08-06T05:36:10;98322.34;;;16.14;85.32
73633;BME280;61927;50.080;14.418;2023-08-06T05:38:35;98318.38;;;16.18;85.33
73633;BME280;61927;50.080;14.418;2023-08-06T05:41:01;98316.06;;;16.23;84.97
73633;BME280;61927;50.080;14.418;2023-08-06T05:43:26;98311.22;;;16.27;84.49
73633;BME280;61927;50.080;14.418;2023-08-06T05:45:52;98307.56;;;16.28;84.79
73633;BME280;61927;50.080;14.418;2023-08-06T05:48:17;98306.72;;;16.27;84.86
73633;BME280;61927;50.080;14.418;2023-08-06T05:50:43;98310.53;;;16.25;84.89
73633;BME280;61927;50.080;14.418;2023-08-06T05:53:09;98303.34;;;16.25;84.82
73633;BME280;61927;50.080;14.418;2023-08-06T05:55:34;98308.88;;;16.24;84.94
73633;BME280;61927;50.080;14.418;2023-08-06T05:58:01;98309.69;;;16.24;85.24
73633;BME280;61927;50.080;14.418;2023-08-06T06:00:26;98315.31;;;16.39;85.27
73633;BME280;61927;50.080;14.418;2023-08-06T06:02:52;98320.22;;;16.52;83.66
73633;BME280;61927;50.080;14.418;2023-08-06T06:05:17;98303.16;;;16.53;83.72
73633;BME280;61927;50.080;14.418;2023-08-06T06:07:43;98306.69;;;16.53;83.66
73633;BME280;61927;50.080;14.418;2023-08-06T06:10:09;98295.47;;;16.58;83.72
73633;BME280;61927;50.080;14.418;2023-08-06T06:12:35;98294.84;;;16.64;83.59
73633;BME280;61927;50.080;14.418;2023-08-06T06:15:00;98296.91;;;16.70;82.87
73633;BME280;61927;50.080;14.418;2023-08-06T06:17:29;98300.78;;;16.75;83.11
73633;BME280;61927;50.080;14.418;2023-08-06T06:19:54;98306.97;;;16.76;83.24
73633;BME280;61927;50.080;14.418;2023-08-06T06:22:20;98305.81;;;16.78;82.42
73633;BME280;61927;50.080;14.418;2023-08-06T06:24:46;98305.50;;;16.82;82.84
73633;BME280;61927;50.080;14.418;2023-08-06T06:27:11;98294.28;;;16.86;83.08
73633;BME280;61927;50.080;14.418;2023-08-06T06:29:38;98304.19;;;16.94;82.35
73633;BME280;61927;50.080;14.418;2023-08-06T06:32:04;98307.53;;;16.96;82.06
73633;BME280;61927;50.080;14.418;2023-08-06T06:34:30;98299.66;;;16.94;81.40
73633;BME280;61927;50.080;14.418;2023-08-06T06:36:55;98302.88;;;16.98;81.08
73633;BME280;61927;50.080;14.418;2023-08-06T06:39:21;98297.50;;;16.98;81.58
73633;BME280;61927;50.080;14.418;2023-08-06T06:41:47;98298.84;;;17.02;81.39
73633;BME280;61927;50.080;14.418;2023-08-06T06:44:13;98298.72;;;17.11;81.12
73633;BME280;61927;50.080;14.418;2023-08-06T06:46:39;98302.22;;;17.12;81.15
73633;BME280;61927;50.080;14.418;2023-08-06T06:49:04;98297.38;;;17.16;80.58
73633;BME280;61927;50.080;14.418;2023-08-06T06:51:30;98305.59;;;17.22;80.53
73633;BME280;61927;50.080;14.418;2023-08-06T06:53:57;98296.91;;;17.28;80.50
73633;BME280;61927;50.080;14.418;2023-08-06T06:56:23;98302.94;;;17.30;80.22
73633;BME280;61927;50.080;14.418;2023-08-06T06:58:48;98305.47;;;17.40;79.88
73633;BME280;61927;50.080;14.418;2023-08-06T07:01:14;98296.75;;;17.38;78.69
73633;BME280;61927;50.080;14.418;2023-08-06T07:03:40;98291.53;;;17.28;78.76
73633;BME280;61927;50.080;14.418;2023-08-06T07:06:06;98294.22;;;17.28;79.93
73633;BME280;61927;50.080;14.418;2023-08-06T07:08:32;98298.25;;;17.40;80.22
73633;BME280;61927;50.080;14.418;2023-08-06T07:11:05;98302.94;;;17.47;80.58
73633;BME280;61927;50.080;14.418;2023-08-06T07:13:31;98295.91;;;17.46;80.67
73633;BME280;61927;50.080;14.418;2023-08-06T07:15:57;98298.75;;;17.44;80.26
73633;BME280;61927;50.080;14.418;2023-08-06T07:18:23;98296.41;;;17.41;79.82
73633;BME280;61927;50.080;14.418;2023-08-06T07:20:53;98296.75;;;17.46;80.05
73633;BME280;61927;50.080;14.418;2023-08-06T07:23:23;98290.56;;;17.54;79.34
73633;BME280;61927;50.080;14.418;2023-08-06T07:25:49;98292.56;;;17.60;79.50
73633;BME280;61927;50.080;14.418;2023-08-06T07:28:15;98291.91;;;17.58;77.43
73633;BME280;61927;50.080;14.418;2023-08-06T07:30:42;98282.50;;;17.62;78.22
73633;BME280;61927;50.080;14.418;2023-08-06T07:33:08;98282.19;;;17.73;78.37
73633;BME280;61927;50.080;14.418;2023-08-06T07:35:35;98285.56;;;17.83;78.17
73633;BME280;61927;50.080;14.418;2023-08-06T07:38:00;98287.22;;;17.84;78.03
73633;BME280;61927;50.080;14.418;2023-08-06T07:40:26;98289.59;;;17.79;77.97
73633;BME280;61927;50.080;14.418;2023-08-06T07:42:51;98284.22;;;17.71;77.22
73633;BME280;61927;50.080;14.418;2023-08-06T07:45:17;98285.69;;;17.65;77.30
73633;BME280;61927;50.080;14.418;2023-08-06T07:47:42;98283.88;;;17.66;77.27
73633;BME280;61927;50.080;14.418;2023-08-06T07:50:09;98276.50;;;17.68;77.54
73633;BME280;61927;50.080;14.418;2023-08-06T07:52:35;98274.81;;;17.67;77.27
73633;BME280;61927;50.080;14.418;2023-08-06T07:55:01;98275.31;;;17.70;77.93
73633;BME280;61927;50.080;14.418;2023-08-06T07:57:30;98281.03;;;17.84;77.83
73633;BME280;61927;50.080;14.418;2023-08-06T07:59:56;98279.19;;;17.84;75.92
73633;BME280;61927;50.080;14.418;2023-08-06T08:02:22;98280.19;;;17.67;76.62
73633;BME280;61927;50.080;14.418;2023-08-06T08:04:48;98266.78;;;17.67;77.51
73633;BME280;61927;50.080;14.418;2023-08-06T08:07:14;98268.28;;;17.69;77.08
73633;BME280;61927;50.080;14.418;2023-08-06T08:09:40;98266.63;;;17.68;76.47
73633;BME280;61927;50.080;14.418;2023-08-06T08:12:06;98262.56;;;17.64;76.16
73633;BME280;61927;50.080;14.418;2023-08-06T08:14:31;98254.88;;;17.69;76.49
73633;BME280;61927;50.080;14.418;2023-08-06T08:17:05;98270.81;;;17.71;76.42
73633;BME280;61927;50.080;14.418;2023-08-06T08:19:32;98261.41;;;17.67;76.04
73633;BME280;61927;50.080;14.418;2023-08-06T08:21:57;98260.75;;;17.73;76.08
73633;BME280;61927;50.080;14.418;2023-08-06T08:24:23;98260.72;;;17.81;75.79
73633;BME280;61927;50.080;14.418;2023-08-06T08:26:52;98260.22;;;17.94;76.15
73633;BME280;61927;50.080;14.418;2023-08-06T08:29:22;98255.50;;;17.96;75.31
73633;BME280;61927;50.080;14.418;2023-08-06T08:31:48;98264.75;;;17.93;75.65
73633;BME280;61927;50.080;14.418;2023-08-06T08:34:16;98260.03;;;18.03;75.70
73633;BME280;61927;50.080;14.418;2023-08-06T08:36:42;98259.53;;;18.00;76.06
73633;BME280;61927;50.080;14.418;2023-08-06T08:39:08;98257.38;;;17.87;77.67
73633;BME280;61927;50.080;14.418;2023-08-06T08:41:37;98256.84;;;17.92;77.49
73633;BME280;61927;50.080;14.418;2023-08-06T08:44:05;98254.34;;;17.90;75.50
73633;BME280;61927;50.080;14.418;2023-08-06T08:46:33;98250.66;;;17.83;76.41
73633;BME280;61927;50.080;14.418;2023-08-06T08:49:02;98250.50;;;17.68;75.48
73633;BME280;61927;50.080;14.418;2023-08-06T08:51:28;98246.81;;;17.53;75.83
73633;BME280;61927;50.080;14.418;2023-08-06T08:53:55;98246.13;;;17.51;76.75
73633;BME280;61927;50.080;14.418;2023-08-06T08:56:22;98250.81;;;17.57;76.65
73633;BME280;61927;50.080;14.418;2023-08-06T08:58:48;98242.59;;;17.59;75.62
73633;BME280;61927;50.080;14.418;2023-08-06T09:01:15;98244.47;;;17.66;75.27
73633;BME280;61927;50.080;14.418;2023-08-06T09:03:43;98239.75;;;17.60;73.69
73633;BME280;61927;50.080;14.418;2023-08-06T09:06:11;98237.28;;;17.67;73.54
73633;BME280;61927;50.080;14.418;2023-08-06T09:08:41;98249.66;;;17.76;73.37
73633;BME280;61927;50.080;14.418;2023-08-06T09:11:09;98241.78;;;17.66;73.05
73633;BME280;61927;50.080;14.418;2023-08-06T09:13:37;98239.94;;;17.75;73.31
73633;BME280;61927;50.080;14.418;2023-08-06T09:16:03;98232.41;;;17.79;73.05
73633;BME280;61927;50.080;14.418;2023-08-06T09:18:30;98232.53;;;17.93;73.72
73633;BME280;61927;50.080;14.418;2023-08-06T09:20:56;98224.63;;;18.08;71.98
73633;BME280;61927;50.080;14.418;2023-08-06T09:23:32;98221.13;;;17.99;72.17
73633;BME280;61927;50.080;14.418;2023-08-06T09:25:59;98219.41;;;18.15;73.44
73633;BME280;61927;50.080;14.418;2023-08-06T09:28:36;98226.94;;;18.19;71.03
73633;BME280;61927;50.080;14.418;2023-08-06T09:31:03;98230.16;;;18.06;72.47
73633;BME280;61927;50.080;14.418;2023-08-06T09:33:29;98226.00;;;17.96;72.61
73633;BME280;61927;50.080;14.418;2023-08-06T09:35:54;98234.06;;;17.80;73.04
73633;BME280;61927;50.080;14.418;2023-08-06T09:38:20;98225.84;;;17.65;73.19
73633;BME280;61927;50.080;14.418;2023-08-06T09:40:46;98220.66;;;17.55;75.41
73633;BME280;61927;50.080;14.418;2023-08-06T09:43:12;98213.44;;;17.56;75.60
73633;BME280;61927;50.080;14.418;2023-08-06T09:45:39;98217.47;;;17.68;76.09
73633;BME280;61927;50.080;14.418;2023-08-06T09:48:06;98214.94;;;17.83;76.12
73633;BME280;61927;50.080;14.418;2023-08-06T09:50:34;98216.94;;;17.97;75.55
73633;BME280;61927;50.080;14.418;2023-08-06T09:53:03;98209.69;;;18.05;74.47
73633;BME280;61927;50.080;14.418;2023-08-06T09:55:30;98210.69;;;18.13;74.38
73633;BME280;61927;50.080;14.418;2023-08-06T09:57:55;98201.81;;;18.04;74.92
73633;BME280;61927;50.080;14.418;2023-08-06T10:00:22;98208.66;;;18.15;74.80
73633;BME280;61927;50.080;14.418;2023-08-06T10:02:49;98202.25;;;18.24;74.48
73633;BME280;61927;50.080;14.418;2023-08-06T10:05:16;98204.75;;;18.25;73.65
73633;BME280;61927;50.080;14.418;2023-08-06T10:07:43;98196.19;;;18.30;73.78
73633;BME280;61927;50.080;14.418;2023-08-06T10:10:10;98199.19;;;18.35;72.44
73633;BME280;61927;50.080;14.418;2023-08-06T10:12:40;98195.66;;;18.34;72.53
73633;BME280;61927;50.080;14.418;2023-08-06T10:15:11;98203.03;;;18.40;71.46
73633;BME280;61927;50.080;14.418;2023-08-06T10:17:38;98193.94;;;18.42;70.44
73633;BME280;61927;50.080;14.418;2023-08-06T10:20:05;98191.81;;;18.29;71.47
73633;BME280;61927;50.080;14.418;2023-08-06T10:22:33;98177.00;;;18.41;71.03
73633;BME280;61927;50.080;14.418;2023-08-06T10:25:00;98186.34;;;18.53;70.25
73633;BME280;61927;50.080;14.418;2023-08-06T10:27:39;98184.47;;;18.62;69.48
73633;BME280;61927;50.080;14.418;2023-08-06T10:30:24;98183.59;;;18.69;69.16
73633;BME280;61927;50.080;14.418;2023-08-06T10:32:52;98183.31;;;18.87;69.43
73633;BME280;61927;50.080;14.418;2023-08-06T10:35:30;98171.00;;;18.93;68.73
73633;BME280;61927;50.080;14.418;2023-08-06T10:40:28;98173.09;;;19.28;67.67
73633;BME280;61927;50.080;14.418;2023-08-06T10:42:59;98171.41;;;19.27;67.01
73633;BME280;61927;50.080;14.418;2023-08-06T10:45:25;98167.78;;;19.20;65.91
73633;BME280;61927;50.080;14.418;2023-08-06T10:47:55;98174.88;;;19.13;66.31
73633;BME280;61927;50.080;14.418;2023-08-06T10:50:24;98179.59;;;18.88;65.15
73633;BME280;61927;50.080;14.418;2023-08-06T10:52:50;98178.22;;;18.69;67.94
73633;BME280;61927;50.080;14.418;2023-08-06T10:55:27;98171.84;;;18.70;67.35
73633;BME280;61927;50.080;14.418;2023-08-06T10:57:53;98168.84;;;18.65;66.43
73633;BME280;61927;50.080;14.418;2023-08-06T11:00:21;98170.09;;;18.78;66.70
73633;BME280;61927;50.080;14.418;2023-08-06T11:02:47;98174.22;;;18.65;65.28
73633;BME280;61927;50.080;14.418;2023-08-06T11:05:14;98174.22;;;18.65;64.09
73633;BME280;61927;50.080;14.418;2023-08-06T11:07:40;98177.25;;;18.62;63.80
73633;BME280;61927;50.080;14.418;2023-08-06T11:10:09;98172.53;;;18.64;63.49
73633;BME280;61927;50.080;14.418;2023-08-06T11:12:36;98171.19;;;18.60;63.79
73633;BME280;61927;50.080;14.418;2023-08-06T11:15:02;98177.91;;;18.64;63.36
73633;BME280;61927;50.080;14.418;2023-08-06T11:17:31;98179.72;;;18.72;64.24
73633;BME280;61927;50.080;14.418;2023-08-06T11:20:03;98173.09;;;18.83;63.56
73633;BME280;61927;50.080;14.418;2023-08-06T11:22:30;98169.28;;;18.77;62.70
73633;BME280;61927;50.080;14.418;2023-08-06T11:24:56;98162.75;;;18.71;63.17
73633;BME280;61927;50.080;14.418;2023-08-06T11:27:22;98171.97;;;18.77;63.29
73633;BME280;61927;50.080;14.418;2023-08-06T11:29:47;98175.00;;;18.74;62.65
73633;BME280;61927;50.080;14.418;2023-08-06T11:32:13;98180.19;;;18.76;63.29
73633;BME280;61927;50.080;14.418;2023-08-06T11:34:39;98171.84;;;18.70;63.64
73633;BME280;61927;50.080;14.418;2023-08-06T11:37:06;98179.88;;;18.70;64.13
73633;BME280;61927;50.080;14.418;2023-08-06T11:39:35;98175.56;;;18.61;64.74
73633;BME280;61927;50.080;14.418;2023-08-06T11:42:05;98185.94;;;18.73;64.79
73633;BME280;61927;50.080;14.418;2023-08-06T11:44:33;98176.25;;;18.86;64.93
73633;BME280;61927;50.080;14.418;2023-08-06T11:47:01;98167.66;;;18.91;64.56
73633;BME280;61927;50.080;14.418;2023-08-06T11:52:11;98167.94;;;18.73;65.90
73633;BME280;61927;50.080;14.418;2023-08-06T11:54:38;98169.00;;;18.64;66.37
73633;BME280;61927;50.080;14.418;2023-08-06T11:57:06;98171.66;;;18.72;67.10
73633;BME280;61927;50.080;14.418;2023-08-06T11:59:32;98174.81;;;18.76;67.61
73633;BME280;61927;50.080;14.418;2023-08-06T12:02:03;98171.47;;;18.74;67.68
73633;BME280;61927;50.080;14.418;2023-08-06T12:04:31;98166.41;;;18.79;67.65
73633;BME280;61927;50.080;14.418;2023-08-06T12:07:07;98169.28;;;18.77;67.91
73633;BME280;61927;50.080;14.418;2023-08-06T12:09:33;98173.41;;;18.88;68.28
73633;BME280;61927;50.080;14.418;2023-08-06T12:11:59;98169.47;;;18.98;67.79
73633;BME280;61927;50.080;14.418;2023-08-06T12:14:24;98160.06;;;19.17;67.34
73633;BME280;61927;50.080;14.418;2023-08-06T12:16:50;98165.50;;;19.32;67.21
73633;BME280;61927;50.080;14.418;2023-08-06T12:19:16;98154.13;;;19.45;66.83
73633;BME280;61927;50.080;14.418;2023-08-06T12:21:41;98159.56;;;19.59;66.42
73633;BME280;61927;50.080;14.418;2023-08-06T12:24:07;98147.50;;;19.70;65.51
73633;BME280;61927;50.080;14.418;2023-08-06T12:26:33;98145.09;;;19.75;66.00
73633;BME280;61927;50.080;14.418;2023-08-06T12:28:58;98145.19;;;19.82;65.57
73633;BME280;61927;50.080;14.418;2023-08-06T12:31:24;98142.78;;;19.87;65.72
73633;BME280;61927;50.080;14.418;2023-08-06T12:33:49;98139.53;;;19.91;65.34
73633;BME280;61927;50.080;14.418;2023-08-06T12:36:15;98142.22;;;19.91;65.08
73633;BME280;61927;50.080;14.418;2023-08-06T12:38:41;98150.28;;;19.91;64.98
73633;BME280;61927;50.080;14.418;2023-08-06T12:41:06;98152.06;;;19.84;65.20
73633;BME280;61927;50.080;14.418;2023-08-06T12:43:32;98153.72;;;19.71;65.82
73633;BME280;61927;50.080;14.418;2023-08-06T12:45:58;98147.22;;;19.65;66.04
73633;BME280;61927;50.080;14.418;2023-08-06T12:48:23;98141.19;;;19.78;66.09
73633;BME280;61927;50.080;14.418;2023-08-06T12:50:49;98144.72;;;19.78;65.64
73633;BME280;61927;50.080;14.418;2023-08-06T12:53:14;98148.81;;;19.74;66.15
73633;BME280;61927;50.080;14.418;2023-08-06T12:55:41;98151.22;;;19.69;66.24
73633;BME280;61927;50.080;14.418;2023-08-06T12:58:06;98149.72;;;19.66;66.44
73633;BME280;61927;50.080;14.418;2023-08-06T13:00:32;98148.84;;;19.51;63.22